Dades de l'estació automàtica Rellinars
Resum diari
21:30 TU| Temperatura mitjana | 15.0 °C | |
|---|---|---|
| Temperatura màxima | 20.7 °C | 12:29 TU |
| Temperatura mínima | 10.5 °C | 21:59 TU |
| Humitat relativa mitjana | 82% | |
| Precipitació acumulada | 1.7 mm | |
| Ratxa màxima del vent (2 m) | 16.2 km/h - 145º | 12:29 TU |
| Irradiació solar global | 12.6 MJ/m2 | |
El tram horari està expressat en Temps Universal (TU). Cal sumar una hora en horari d'hivern i dues en horari d'estiu per passar a l'hora oficial.
Rellinars
| Municipi | Rellinars |
|---|---|
| Comarca | Vallès Occidental |
| Altitud | 429 m |
| Data alta | 18.02.1998 |
| Estat actual | Operativa |
| Període TU |
TM °C |
TX °C |
TN °C |
HRM % |
PPT mm |
VVM (2 m) km/h |
DVM (2 m) graus |
VVX (2 m) km/h |
RS W/m2 |
|---|---|---|---|---|---|---|---|---|---|
| 00:00 - 00:30 | 12.9 | 13.0 | 12.7 | 92 | 0.0 | 0.0 | 297 | 1.4 | 0 |
| 00:30 - 01:00 | 12.8 | 12.9 | 12.7 | 92 | 0.0 | 0.4 | 52 | 2.2 | 0 |
| 01:00 - 01:30 | 12.9 | 12.9 | 12.7 | 90 | 0.0 | 0.7 | 55 | 4.3 | 0 |
| 01:30 - 02:00 | 12.8 | 12.9 | 12.7 | 91 | 0.0 | 0.7 | 259 | 2.9 | 0 |
| 02:00 - 02:30 | 12.8 | 12.9 | 12.7 | 91 | 0.0 | 0.0 | 114 | 1.4 | 0 |
| 02:30 - 03:00 | 12.7 | 12.7 | 12.6 | 91 | 0.0 | 0.4 | 283 | 2.5 | 0 |
| 03:00 - 03:30 | 12.4 | 12.6 | 12.3 | 93 | 0.0 | 0.4 | 28 | 2.5 | 0 |
| 03:30 - 04:00 | 12.1 | 12.3 | 11.9 | 95 | 0.0 | 0.4 | 101 | 1.8 | 0 |
| 04:00 - 04:30 | 12.0 | 12.1 | 11.7 | 96 | 0.0 | 0.4 | 39 | 1.8 | 0 |
| 04:30 - 05:00 | 11.8 | 11.8 | 11.7 | 96 | 0.0 | 1.8 | 59 | 5.8 | 1 |
| 05:00 - 05:30 | 11.9 | 12.1 | 11.7 | 95 | 0.0 | 1.8 | 56 | 5.0 | 22 |
| 05:30 - 06:00 | 12.5 | 12.8 | 12.1 | 93 | 0.0 | 0.7 | 16 | 4.3 | 48 |
| 06:00 - 06:30 | 13.2 | 13.5 | 12.7 | 91 | 0.0 | 1.8 | 278 | 5.8 | 123 |
| 06:30 - 07:00 | 13.8 | 15.1 | 13.5 | 88 | 0.0 | 1.1 | 214 | 9.0 | 246 |
| 07:00 - 07:30 | 15.5 | 16.2 | 15.0 | 80 | 0.0 | 1.4 | 317 | 4.7 | 368 |
| 07:30 - 08:00 | 16.2 | 17.4 | 15.4 | 76 | 0.0 | 2.2 | 297 | 6.8 | 514 |
| 08:00 - 08:30 | 16.8 | 17.5 | 16.4 | 75 | 0.0 | 2.9 | 301 | 7.6 | 426 |
| 08:30 - 09:00 | 17.2 | 17.9 | 16.5 | 73 | 0.0 | 2.2 | 296 | 6.1 | 424 |
| 09:00 - 09:30 | 17.9 | 18.3 | 17.6 | 66 | 0.0 | 2.2 | 301 | 6.1 | 413 |
| 09:30 - 10:00 | 18.9 | 20.3 | 17.9 | 61 | 0.0 | 2.2 | 300 | 6.5 | 640 |
| 10:00 - 10:30 | 20.2 | 20.6 | 19.9 | 57 | 0.0 | 2.2 | 286 | 8.6 | 642 |
| 10:30 - 11:00 | 19.8 | 20.4 | 19.1 | 59 | 0.0 | 2.5 | 242 | 9.0 | 391 |
| 11:00 - 11:30 | 19.4 | 19.6 | 19.1 | 60 | 0.0 | 2.5 | 179 | 11.2 | 223 |
| 11:30 - 12:00 | 19.1 | 19.2 | 18.8 | 63 | 0.0 | 4.0 | 136 | 12.2 | 213 |
| 12:00 - 12:30 | 20.1 | 20.7 | 18.8 | 63 | 0.0 | 4.3 | 154 | 16.2 | 671 |
| 12:30 - 13:00 | 19.6 | 20.6 | 18.7 | 67 | 0.0 | 5.0 | 170 | 15.1 | 366 |
| 13:00 - 13:30 | 16.9 | 18.6 | 15.9 | 67 | 0.0 | 3.2 | 281 | 11.2 | 61 |
| 13:30 - 14:00 | 15.4 | 15.9 | 15.0 | 72 | 0.1 | 1.1 | 189 | 5.0 | 36 |
| 14:00 - 14:30 | 14.6 | 15.1 | 14.3 | 85 | 0.5 | 1.4 | 69 | 4.3 | 56 |
| 14:30 - 15:00 | 14.7 | 15.3 | 14.3 | 90 | 0.0 | 1.4 | 136 | 5.0 | 139 |
| 15:00 - 15:30 | 16.4 | 16.8 | 15.4 | 85 | 0.0 | 2.5 | 166 | 9.0 | 352 |
| 15:30 - 16:00 | 16.2 | 16.5 | 16.0 | 84 | 0.0 | 2.9 | 145 | 6.8 | 219 |
| 16:00 - 16:30 | 16.5 | 16.9 | 16.3 | 80 | 0.0 | 2.9 | 151 | 9.4 | 202 |
| 16:30 - 17:00 | 16.3 | 16.5 | 16.1 | 81 | 0.0 | 2.2 | 129 | 7.6 | 80 |
| 17:00 - 17:30 | 16.0 | 16.1 | 15.9 | 81 | 0.0 | 1.4 | 143 | 6.5 | 46 |
| 17:30 - 18:00 | 16.0 | 16.2 | 15.7 | 81 | 0.0 | 2.2 | 154 | 5.4 | 60 |
| 18:00 - 18:30 | 15.6 | 15.7 | 15.5 | 83 | 0.0 | 2.9 | 177 | 7.2 | 12 |
| 18:30 - 19:00 | 15.3 | 15.5 | 15.2 | 83 | 0.0 | 3.6 | 180 | 11.9 | 1 |
| 19:00 - 19:30 | 14.4 | 15.4 | 13.2 | 85 | 0.6 | 3.6 | 260 | 14.8 | 0 |
| 19:30 - 20:00 | 12.5 | 13.1 | 12.3 | 89 | 0.0 | 1.4 | 342 | 6.5 | 0 |
| 20:00 - 20:30 | 12.0 | 12.3 | 11.8 | 93 | 0.5 | 2.9 | 51 | 7.2 | 0 |
| 20:30 - 21:00 | 11.8 | 11.8 | 11.7 | 95 | 0.0 | 0.7 | 25 | 5.4 | 0 |
| 21:00 - 21:30 | 11.7 | 11.8 | 11.6 | 94 | 0.0 | 0.4 | 297 | 2.9 | 0 |
| 21:30 - 22:00 | 11.1 | 11.6 | 10.5 | 94 | 0.0 | 1.8 | 66 | 5.8 | 0 |
| 22:00 - 22:30 | (s/d) | (s/d) | (s/d) | (s/d) | (s/d) | (s/d) | (s/d) | (s/d) | (s/d) |
Les dades en taronja només han passat un control de qualitat automàtic. Resta pendent la seva validació definitiva.